sensor_id;sensor_type;location;lat;lon;timestamp;pressure;altitude;pressure_sealevel;temperature;humidity
17772;BME280;9010;32.624;-96.938;2022-09-24T00:01:45;98812.31;;;30.76;67.58
17772;BME280;9010;32.624;-96.938;2022-09-24T00:04:13;98815.75;;;30.65;67.23
17772;BME280;9010;32.624;-96.938;2022-09-24T00:06:44;98819.13;;;30.61;68.36
17772;BME280;9010;32.624;-96.938;2022-09-24T00:09:13;98820.00;;;30.55;69.63
17772;BME280;9010;32.624;-96.938;2022-09-24T00:11:42;98827.56;;;30.46;68.73
17772;BME280;9010;32.624;-96.938;2022-09-24T00:14:13;98830.53;;;30.38;70.25
17772;BME280;9010;32.624;-96.938;2022-09-24T00:16:41;98832.41;;;30.31;70.11
17772;BME280;9010;32.624;-96.938;2022-09-24T00:19:11;98830.16;;;30.22;70.00
17772;BME280;9010;32.624;-96.938;2022-09-24T00:21:40;98832.28;;;30.13;70.85
17772;BME280;9010;32.624;-96.938;2022-09-24T00:24:11;98826.88;;;30.06;71.74
17772;BME280;9010;32.624;-96.938;2022-09-24T00:27:00;98833.38;;;29.99;73.59
17772;BME280;9010;32.624;-96.938;2022-09-24T00:29:29;98833.63;;;29.91;73.21
17772;BME280;9010;32.624;-96.938;2022-09-24T00:31:59;98829.47;;;29.82;75.80
17772;BME280;9010;32.624;-96.938;2022-09-24T00:34:27;98832.56;;;29.79;79.54
17772;BME280;9010;32.624;-96.938;2022-09-24T00:36:56;98835.28;;;29.72;81.34
17772;BME280;9010;32.624;-96.938;2022-09-24T00:39:25;98840.09;;;29.63;83.49
17772;BME280;9010;32.624;-96.938;2022-09-24T00:41:53;98840.75;;;29.59;78.26
17772;BME280;9010;32.624;-96.938;2022-09-24T00:44:54;98840.16;;;29.50;77.90
17772;BME280;9010;32.624;-96.938;2022-09-24T00:47:34;98849.94;;;29.45;81.65
17772;BME280;9010;32.624;-96.938;2022-09-24T00:50:13;98842.25;;;29.42;81.34
17772;BME280;9010;32.624;-96.938;2022-09-24T00:52:45;98850.38;;;29.35;79.80
17772;BME280;9010;32.624;-96.938;2022-09-24T00:55:14;98847.88;;;29.27;80.40
17772;BME280;9010;32.624;-96.938;2022-09-24T00:57:46;98850.16;;;29.24;82.85
17772;BME280;9010;32.624;-96.938;2022-09-24T01:00:17;98849.09;;;29.18;83.01
17772;BME280;9010;32.624;-96.938;2022-09-24T01:02:49;98858.03;;;29.12;83.49
17772;BME280;9010;32.624;-96.938;2022-09-24T01:05:20;98862.41;;;29.06;83.11
17772;BME280;9010;32.624;-96.938;2022-09-24T01:07:49;98863.66;;;29.04;84.99
17772;BME280;9010;32.624;-96.938;2022-09-24T01:10:22;98860.13;;;28.97;89.93
17772;BME280;9010;32.624;-96.938;2022-09-24T01:13:28;98866.38;;;28.91;83.89
17772;BME280;9010;32.624;-96.938;2022-09-24T01:16:06;98868.88;;;28.86;84.73
17772;BME280;9010;32.624;-96.938;2022-09-24T01:18:38;98874.47;;;28.84;87.23
17772;BME280;9010;32.624;-96.938;2022-09-24T01:21:31;98877.59;;;28.81;86.54
17772;BME280;9010;32.624;-96.938;2022-09-24T01:24:16;98883.63;;;28.77;90.18
17772;BME280;9010;32.624;-96.938;2022-09-24T01:26:56;98882.78;;;28.76;89.00
17772;BME280;9010;32.624;-96.938;2022-09-24T01:29:35;98889.00;;;28.70;88.79
17772;BME280;9010;32.624;-96.938;2022-09-24T01:32:11;98890.25;;;28.68;89.71
17772;BME280;9010;32.624;-96.938;2022-09-24T01:34:44;98890.00;;;28.63;93.29
17772;BME280;9010;32.624;-96.938;2022-09-24T01:37:17;98898.13;;;28.63;99.40
17772;BME280;9010;32.624;-96.938;2022-09-24T01:39:49;98901.44;;;28.58;95.39
17772;BME280;9010;32.624;-96.938;2022-09-24T01:42:20;98909.72;;;28.50;96.38
17772;BME280;9010;32.624;-96.938;2022-09-24T01:44:50;98908.88;;;28.49;95.04
17772;BME280;9010;32.624;-96.938;2022-09-24T01:47:24;98905.78;;;28.46;95.47
17772;BME280;9010;32.624;-96.938;2022-09-24T01:49:56;98906.38;;;28.41;91.66
17772;BME280;9010;32.624;-96.938;2022-09-24T01:52:28;98910.97;;;28.41;91.69
17772;BME280;9010;32.624;-96.938;2022-09-24T01:54:58;98913.44;;;28.42;98.54
17772;BME280;9010;32.624;-96.938;2022-09-24T01:57:33;98916.16;;;28.42;100.00
17772;BME280;9010;32.624;-96.938;2022-09-24T02:00:08;98916.78;;;28.38;100.00
17772;BME280;9010;32.624;-96.938;2022-09-24T02:02:41;98921.75;;;28.34;99.50
17772;BME280;9010;32.624;-96.938;2022-09-24T02:05:15;98920.06;;;28.33;99.68
17772;BME280;9010;32.624;-96.938;2022-09-24T02:07:51;98931.28;;;28.30;95.53
17772;BME280;9010;32.624;-96.938;2022-09-24T02:10:23;98938.38;;;28.31;100.00
17772;BME280;9010;32.624;-96.938;2022-09-24T02:12:55;98933.81;;;28.32;100.00
17772;BME280;9010;32.624;-96.938;2022-09-24T02:15:29;98938.78;;;28.28;96.94
17772;BME280;9010;32.624;-96.938;2022-09-24T02:18:02;98941.25;;;28.30;96.06
17772;BME280;9010;32.624;-96.938;2022-09-24T02:20:33;98950.88;;;28.32;91.93
17772;BME280;9010;32.624;-96.938;2022-09-24T02:23:04;98951.31;;;28.42;89.70
17772;BME280;9010;32.624;-96.938;2022-09-24T02:25:37;98949.25;;;28.44;96.53
17772;BME280;9010;32.624;-96.938;2022-09-24T02:28:08;98953.00;;;28.50;91.75
17772;BME280;9010;32.624;-96.938;2022-09-24T02:30:40;98954.69;;;28.51;92.92
17772;BME280;9010;32.624;-96.938;2022-09-24T02:33:12;98953.00;;;28.50;90.72
17772;BME280;9010;32.624;-96.938;2022-09-24T02:35:55;98957.00;;;28.54;85.59
17772;BME280;9010;32.624;-96.938;2022-09-24T02:38:24;98962.63;;;28.59;86.37
17772;BME280;9010;32.624;-96.938;2022-09-24T02:40:53;98972.59;;;28.59;90.33
17772;BME280;9010;32.624;-96.938;2022-09-24T02:43:21;98978.41;;;28.56;100.00
17772;BME280;9010;32.624;-96.938;2022-09-24T02:45:52;98982.16;;;28.48;100.00
17772;BME280;9010;32.624;-96.938;2022-09-24T02:48:21;98978.81;;;28.46;97.74
17772;BME280;9010;32.624;-96.938;2022-09-24T02:50:49;98976.69;;;28.41;100.00
17772;BME280;9010;32.624;-96.938;2022-09-24T02:53:17;98979.16;;;28.36;100.00
17772;BME280;9010;32.624;-96.938;2022-09-24T02:55:46;98989.53;;;28.33;100.00
17772;BME280;9010;32.624;-96.938;2022-09-24T02:58:14;98987.22;;;28.30;100.00
17772;BME280;9010;32.624;-96.938;2022-09-24T03:00:42;98973.69;;;28.23;100.00
17772;BME280;9010;32.624;-96.938;2022-09-24T03:03:12;98982.88;;;28.29;98.16
17772;BME280;9010;32.624;-96.938;2022-09-24T03:05:40;98981.25;;;28.34;100.00
17772;BME280;9010;32.624;-96.938;2022-09-24T03:08:08;98980.19;;;28.35;96.13
17772;BME280;9010;32.624;-96.938;2022-09-24T03:10:36;98988.97;;;28.37;97.75
17772;BME280;9010;32.624;-96.938;2022-09-24T03:13:05;98988.75;;;28.39;91.88
17772;BME280;9010;32.624;-96.938;2022-09-24T03:15:33;98992.53;;;28.44;91.24
17772;BME280;9010;32.624;-96.938;2022-09-24T03:18:01;98986.47;;;28.42;89.71
17772;BME280;9010;32.624;-96.938;2022-09-24T03:20:31;98991.91;;;28.42;89.38
17772;BME280;9010;32.624;-96.938;2022-09-24T03:22:59;98996.50;;;28.48;87.95
17772;BME280;9010;32.624;-96.938;2022-09-24T03:25:28;98988.56;;;28.47;88.13
17772;BME280;9010;32.624;-96.938;2022-09-24T03:27:56;98986.47;;;28.42;92.29
17772;BME280;9010;32.624;-96.938;2022-09-24T03:30:24;98990.88;;;28.43;91.24
17772;BME280;9010;32.624;-96.938;2022-09-24T03:33:09;98991.06;;;28.42;94.73
17772;BME280;9010;32.624;-96.938;2022-09-24T03:35:39;98991.72;;;28.50;91.83
17772;BME280;9010;32.624;-96.938;2022-09-24T03:38:07;98998.81;;;28.51;93.46
17772;BME280;9010;32.624;-96.938;2022-09-24T03:40:35;99005.25;;;28.50;90.56
17772;BME280;9010;32.624;-96.938;2022-09-24T03:43:04;99008.34;;;28.47;90.20
17772;BME280;9010;32.624;-96.938;2022-09-24T03:45:32;99002.38;;;28.52;91.64
17772;BME280;9010;32.624;-96.938;2022-09-24T03:48:04;99007.97;;;28.50;91.47
17772;BME280;9010;32.624;-96.938;2022-09-24T03:50:35;99006.28;;;28.49;91.91
17772;BME280;9010;32.624;-96.938;2022-09-24T03:53:05;99010.47;;;28.52;91.44
17772;BME280;9010;32.624;-96.938;2022-09-24T03:55:33;99016.06;;;28.50;91.45
17772;BME280;9010;32.624;-96.938;2022-09-24T03:58:01;99015.41;;;28.42;91.02
17772;BME280;9010;32.624;-96.938;2022-09-24T04:00:29;99017.47;;;28.40;94.52
17772;BME280;9010;32.624;-96.938;2022-09-24T04:02:58;99015.16;;;28.37;94.94
17772;BME280;9010;32.624;-96.938;2022-09-24T04:05:26;99017.88;;;28.37;93.79
17772;BME280;9010;32.624;-96.938;2022-09-24T04:07:55;99012.63;;;28.29;91.99
17772;BME280;9010;32.624;-96.938;2022-09-24T04:10:25;99006.56;;;28.27;94.74
17772;BME280;9010;32.624;-96.938;2022-09-24T04:12:53;99004.06;;;28.25;93.60
17772;BME280;9010;32.624;-96.938;2022-09-24T04:15:22;99007.00;;;28.24;94.25
17772;BME280;9010;32.624;-96.938;2022-09-24T04:17:50;99016.31;;;28.21;95.48
17772;BME280;9010;32.624;-96.938;2022-09-24T04:20:19;99012.53;;;28.16;98.70
17772;BME280;9010;32.624;-96.938;2022-09-24T04:22:48;99015.84;;;28.11;95.67
17772;BME280;9010;32.624;-96.938;2022-09-24T04:25:17;99018.31;;;28.06;95.95
17772;BME280;9010;32.624;-96.938;2022-09-24T04:27:52;99014.28;;;28.02;93.45
17772;BME280;9010;32.624;-96.938;2022-09-24T04:30:20;99021.63;;;28.08;91.89
17772;BME280;9010;32.624;-96.938;2022-09-24T04:32:49;99027.28;;;28.13;98.99
17772;BME280;9010;32.624;-96.938;2022-09-24T04:35:18;99012.09;;;28.12;95.33
17772;BME280;9010;32.624;-96.938;2022-09-24T04:37:47;99010.81;;;28.08;94.46
17772;BME280;9010;32.624;-96.938;2022-09-24T04:40:15;99011.25;;;28.12;95.31
17772;BME280;9010;32.624;-96.938;2022-09-24T04:42:46;99011.72;;;28.15;92.17
17772;BME280;9010;32.624;-96.938;2022-09-24T04:45:14;99012.41;;;28.30;89.56
17772;BME280;9010;32.624;-96.938;2022-09-24T04:47:46;99018.06;;;28.35;90.60
17772;BME280;9010;32.624;-96.938;2022-09-24T04:50:18;99011.19;;;28.33;91.17
17772;BME280;9010;32.624;-96.938;2022-09-24T04:52:46;99016.19;;;28.36;92.76
17772;BME280;9010;32.624;-96.938;2022-09-24T04:55:14;99016.25;;;28.42;91.21
17772;BME280;9010;32.624;-96.938;2022-09-24T04:57:43;99018.78;;;28.50;89.42
17772;BME280;9010;32.624;-96.938;2022-09-24T05:00:14;99007.97;;;28.50;91.41
17772;BME280;9010;32.624;-96.938;2022-09-24T05:02:44;99009.59;;;28.45;90.39
17772;BME280;9010;32.624;-96.938;2022-09-24T05:05:13;99007.09;;;28.43;90.15
17772;BME280;9010;32.624;-96.938;2022-09-24T05:07:41;99013.13;;;28.45;91.24
17772;BME280;9010;32.624;-96.938;2022-09-24T05:10:09;99015.84;;;28.45;89.26
17772;BME280;9010;32.624;-96.938;2022-09-24T05:12:39;99018.72;;;28.37;90.74
17772;BME280;9010;32.624;-96.938;2022-09-24T05:15:08;99013.69;;;28.34;90.43
17772;BME280;9010;32.624;-96.938;2022-09-24T05:17:39;99013.25;;;28.31;90.68
17772;BME280;9010;32.624;-96.938;2022-09-24T05:20:08;99022.78;;;28.27;91.27
17772;BME280;9010;32.624;-96.938;2022-09-24T05:22:40;99016.50;;;28.20;94.04
17772;BME280;9010;32.624;-96.938;2022-09-24T05:25:08;99011.50;;;28.17;95.76
17772;BME280;9010;32.624;-96.938;2022-09-24T05:27:42;99012.34;;;28.17;93.25
17772;BME280;9010;32.624;-96.938;2022-09-24T05:30:10;99012.97;;;28.19;92.42
17772;BME280;9010;32.624;-96.938;2022-09-24T05:32:40;99002.00;;;28.27;93.49
17772;BME280;9010;32.624;-96.938;2022-09-24T05:35:09;99003.44;;;28.23;92.84
17772;BME280;9010;32.624;-96.938;2022-09-24T05:37:38;99007.56;;;28.19;92.53
17772;BME280;9010;32.624;-96.938;2022-09-24T05:40:07;99002.38;;;28.18;91.94
17772;BME280;9010;32.624;-96.938;2022-09-24T05:42:49;99013.38;;;28.16;93.46
17772;BME280;9010;32.624;-96.938;2022-09-24T05:45:18;99014.00;;;28.18;95.06
17772;BME280;9010;32.624;-96.938;2022-09-24T05:47:47;99000.97;;;28.28;92.63
17772;BME280;9010;32.624;-96.938;2022-09-24T05:50:16;99008.47;;;28.26;94.10
17772;BME280;9010;32.624;-96.938;2022-09-24T05:52:45;98998.66;;;28.25;92.24
17772;BME280;9010;32.624;-96.938;2022-09-24T05:55:13;98996.97;;;28.18;94.97
17772;BME280;9010;32.624;-96.938;2022-09-24T05:57:42;99007.31;;;28.14;95.64
17772;BME280;9010;32.624;-96.938;2022-09-24T06:00:10;99007.09;;;28.09;93.96
17772;BME280;9010;32.624;-96.938;2022-09-24T06:02:39;99010.19;;;28.06;93.28
17772;BME280;9010;32.624;-96.938;2022-09-24T06:05:10;99010.50;;;27.96;93.85
17772;BME280;9010;32.624;-96.938;2022-09-24T06:07:39;99011.50;;;27.95;94.98
17772;BME280;9010;32.624;-96.938;2022-09-24T06:10:08;99005.94;;;27.97;94.77
17772;BME280;9010;32.624;-96.938;2022-09-24T06:12:36;99011.09;;;27.92;95.53
17772;BME280;9010;32.624;-96.938;2022-09-24T06:15:05;99013.13;;;27.90;95.11
17772;BME280;9010;32.624;-96.938;2022-09-24T06:17:33;99008.81;;;27.95;94.80
17772;BME280;9010;32.624;-96.938;2022-09-24T06:20:01;99010.44;;;27.90;94.44
17772;BME280;9010;32.624;-96.938;2022-09-24T06:22:31;99012.97;;;27.91;95.40
17772;BME280;9010;32.624;-96.938;2022-09-24T06:24:59;99008.81;;;27.95;94.35
17772;BME280;9010;32.624;-96.938;2022-09-24T06:27:28;99010.38;;;28.05;94.21
17772;BME280;9010;32.624;-96.938;2022-09-24T06:29:56;98998.72;;;28.04;93.02
17772;BME280;9010;32.624;-96.938;2022-09-24T06:32:24;99005.03;;;28.11;93.13
17772;BME280;9010;32.624;-96.938;2022-09-24T06:34:52;99003.34;;;28.10;94.43
17772;BME280;9010;32.624;-96.938;2022-09-24T06:37:21;99009.53;;;28.04;96.00
17772;BME280;9010;32.624;-96.938;2022-09-24T06:39:51;99006.16;;;28.02;95.99
17772;BME280;9010;32.624;-96.938;2022-09-24T06:42:19;99008.50;;;28.05;95.41
17772;BME280;9010;32.624;-96.938;2022-09-24T06:44:47;99017.63;;;28.04;94.61
17772;BME280;9010;32.624;-96.938;2022-09-24T06:47:15;99006.16;;;28.02;95.42
17772;BME280;9010;32.624;-96.938;2022-09-24T06:49:43;98998.44;;;27.99;97.11
17772;BME280;9010;32.624;-96.938;2022-09-24T06:52:12;99000.91;;;27.94;96.45
17772;BME280;9010;32.624;-96.938;2022-09-24T06:54:40;99001.31;;;27.91;96.49
17772;BME280;9010;32.624;-96.938;2022-09-24T06:57:10;99006.22;;;27.81;97.35
17772;BME280;9010;32.624;-96.938;2022-09-24T06:59:38;99001.16;;;27.71;98.92
17772;BME280;9010;32.624;-96.938;2022-09-24T07:02:07;99006.75;;;27.70;99.81
17772;BME280;9010;32.624;-96.938;2022-09-24T07:04:36;99007.78;;;27.69;99.59
17772;BME280;9010;32.624;-96.938;2022-09-24T07:07:05;99013.19;;;27.69;98.72
17772;BME280;9010;32.624;-96.938;2022-09-24T07:09:49;99016.66;;;27.63;100.00
17772;BME280;9010;32.624;-96.938;2022-09-24T07:12:19;99011.84;;;27.58;100.00
17772;BME280;9010;32.624;-96.938;2022-09-24T07:14:47;99015.78;;;27.56;99.59
17772;BME280;9010;32.624;-96.938;2022-09-24T07:17:15;99021.34;;;27.54;100.00
17772;BME280;9010;32.624;-96.938;2022-09-24T07:19:43;99020.38;;;27.40;100.00
17772;BME280;9010;32.624;-96.938;2022-09-24T07:22:12;99019.75;;;27.38;100.00
17772;BME280;9010;32.624;-96.938;2022-09-24T07:24:40;99024.47;;;27.36;100.00
17772;BME280;9010;32.624;-96.938;2022-09-24T07:27:08;99022.81;;;27.35;100.00
17772;BME280;9010;32.624;-96.938;2022-09-24T07:29:38;99021.59;;;27.38;100.00
17772;BME280;9010;32.624;-96.938;2022-09-24T07:32:07;99017.84;;;27.39;100.00
17772;BME280;9010;32.624;-96.938;2022-09-24T07:34:35;99018.34;;;27.43;100.00
17772;BME280;9010;32.624;-96.938;2022-09-24T07:37:04;99018.44;;;27.34;100.00
17772;BME280;9010;32.624;-96.938;2022-09-24T07:39:32;99012.00;;;27.35;100.00
17772;BME280;9010;32.624;-96.938;2022-09-24T07:42:01;99016.19;;;27.38;100.00
17772;BME280;9010;32.624;-96.938;2022-09-24T07:44:29;99010.72;;;27.31;100.00
17772;BME280;9010;32.624;-96.938;2022-09-24T07:46:59;99013.63;;;27.30;100.00
17772;BME280;9010;32.624;-96.938;2022-09-24T07:49:27;99015.72;;;27.34;100.00
17772;BME280;9010;32.624;-96.938;2022-09-24T07:51:57;99012.31;;;27.26;100.00
17772;BME280;9010;32.624;-96.938;2022-09-24T07:54:26;99011.88;;;27.22;100.00
17772;BME280;9010;32.624;-96.938;2022-09-24T07:56:55;99013.94;;;27.20;100.00
17772;BME280;9010;32.624;-96.938;2022-09-24T07:59:24;99012.25;;;27.19;100.00
17772;BME280;9010;32.624;-96.938;2022-09-24T08:01:52;99008.91;;;27.17;100.00
17772;BME280;9010;32.624;-96.938;2022-09-24T08:04:24;99014.31;;;27.17;100.00
17772;BME280;9010;32.624;-96.938;2022-09-24T08:06:52;99013.00;;;27.13;100.00
17772;BME280;9010;32.624;-96.938;2022-09-24T08:09:20;99017.75;;;27.11;100.00
17772;BME280;9010;32.624;-96.938;2022-09-24T08:11:49;99019.84;;;27.09;100.00
17772;BME280;9010;32.624;-96.938;2022-09-24T08:14:17;99013.34;;;27.04;100.00
17772;BME280;9010;32.624;-96.938;2022-09-24T08:16:45;99016.59;;;26.99;100.00
17772;BME280;9010;32.624;-96.938;2022-09-24T08:19:13;99013.44;;;26.96;100.00
17772;BME280;9010;32.624;-96.938;2022-09-24T08:21:43;99005.19;;;26.82;100.00
17772;BME280;9010;32.624;-96.938;2022-09-24T08:24:13;99018.97;;;26.73;100.00
17772;BME280;9010;32.624;-96.938;2022-09-24T08:26:42;99010.03;;;26.72;100.00
17772;BME280;9010;32.624;-96.938;2022-09-24T08:29:10;99015.88;;;26.76;100.00
17772;BME280;9010;32.624;-96.938;2022-09-24T08:31:39;99014.94;;;26.69;100.00
17772;BME280;9010;32.624;-96.938;2022-09-24T08:34:07;99019.44;;;26.62;100.00
17772;BME280;9010;32.624;-96.938;2022-09-24T08:36:36;99011.97;;;26.64;100.00
17772;BME280;9010;32.624;-96.938;2022-09-24T08:39:06;99014.84;;;26.62;100.00
17772;BME280;9010;32.624;-96.938;2022-09-24T08:41:50;99001.09;;;26.72;100.00
17772;BME280;9010;32.624;-96.938;2022-09-24T08:44:26;99002.84;;;26.79;100.00
17772;BME280;9010;32.624;-96.938;2022-09-24T08:47:15;99008.44;;;26.78;100.00
17772;BME280;9010;32.624;-96.938;2022-09-24T08:49:59;99002.78;;;26.73;100.00
17772;BME280;9010;32.624;-96.938;2022-09-24T08:52:42;99004.25;;;26.75;100.00
17772;BME280;9010;32.624;-96.938;2022-09-24T08:55:19;99004.34;;;26.82;100.00
17772;BME280;9010;32.624;-96.938;2022-09-24T08:57:56;99007.72;;;26.84;100.00
17772;BME280;9010;32.624;-96.938;2022-09-24T09:00:27;99000.72;;;26.90;100.00
17772;BME280;9010;32.624;-96.938;2022-09-24T09:03:03;99012.34;;;26.90;100.00
17772;BME280;9010;32.624;-96.938;2022-09-24T09:05:46;99012.50;;;27.03;100.00
17772;BME280;9010;32.624;-96.938;2022-09-24T09:08:22;99006.06;;;27.04;100.00
17772;BME280;9010;32.624;-96.938;2022-09-24T09:11:00;99009.16;;;27.01;100.00
17772;BME280;9010;32.624;-96.938;2022-09-24T09:13:31;99007.94;;;27.04;100.00
17772;BME280;9010;32.624;-96.938;2022-09-24T09:16:04;99009.22;;;27.08;100.00
17772;BME280;9010;32.624;-96.938;2022-09-24T09:18:36;99011.16;;;27.14;100.00
17772;BME280;9010;32.624;-96.938;2022-09-24T09:21:14;99008.66;;;27.12;100.00
17772;BME280;9010;32.624;-96.938;2022-09-24T09:23:47;99010.88;;;27.09;100.00
17772;BME280;9010;32.624;-96.938;2022-09-24T09:26:18;99024.59;;;27.07;100.00
17772;BME280;9010;32.624;-96.938;2022-09-24T09:28:47;99018.34;;;27.07;100.00
17772;BME280;9010;32.624;-96.938;2022-09-24T09:31:25;99009.66;;;27.11;100.00
17772;BME280;9010;32.624;-96.938;2022-09-24T09:36:58;99018.03;;;27.16;100.00
17772;BME280;9010;32.624;-96.938;2022-09-24T09:39:37;99019.63;;;27.11;100.00
17772;BME280;9010;32.624;-96.938;2022-09-24T09:42:28;99017.13;;;27.09;100.00
17772;BME280;9010;32.624;-96.938;2022-09-24T09:44:59;99018.34;;;27.07;100.00
17772;BME280;9010;32.624;-96.938;2022-09-24T09:47:38;99011.84;;;27.01;100.00
17772;BME280;9010;32.624;-96.938;2022-09-24T09:50:18;99007.09;;;27.03;100.00
17772;BME280;9010;32.624;-96.938;2022-09-24T09:52:51;99008.19;;;27.09;100.00
17772;BME280;9010;32.624;-96.938;2022-09-24T09:55:22;99011.72;;;27.09;100.00
17772;BME280;9010;32.624;-96.938;2022-09-24T09:57:57;99006.97;;;27.11;100.00
17772;BME280;9010;32.624;-96.938;2022-09-24T10:00:33;99007.81;;;27.12;100.00
17772;BME280;9010;32.624;-96.938;2022-09-24T10:03:02;99012.19;;;27.13;100.00
17772;BME280;9010;32.624;-96.938;2022-09-24T10:05:31;99011.34;;;27.12;100.00
17772;BME280;9010;32.624;-96.938;2022-09-24T10:08:00;99008.03;;;27.10;100.00
17772;BME280;9010;32.624;-96.938;2022-09-24T10:10:28;99017.59;;;27.13;100.00
17772;BME280;9010;32.624;-96.938;2022-09-24T10:13:07;99012.94;;;27.07;100.00
17772;BME280;9010;32.624;-96.938;2022-09-24T10:15:46;99023.28;;;27.03;100.00
17772;BME280;9010;32.624;-96.938;2022-09-24T10:18:16;99025.34;;;27.01;100.00
17772;BME280;9010;32.624;-96.938;2022-09-24T10:20:50;99024.13;;;27.04;100.00
17772;BME280;9010;32.624;-96.938;2022-09-24T10:23:21;99019.09;;;27.01;100.00
17772;BME280;9010;32.624;-96.938;2022-09-24T10:25:59;99018.53;;;27.05;100.00
17772;BME280;9010;32.624;-96.938;2022-09-24T10:28:30;99030.28;;;26.98;100.00
17772;BME280;9010;32.624;-96.938;2022-09-24T10:31:19;99024.16;;;26.89;100.00
17772;BME280;9010;32.624;-96.938;2022-09-24T10:33:50;99023.56;;;26.94;100.00
17772;BME280;9010;32.624;-96.938;2022-09-24T10:36:22;99030.19;;;26.91;100.00
17772;BME280;9010;32.624;-96.938;2022-09-24T10:39:02;99037.56;;;26.82;100.00
17772;BME280;9010;32.624;-96.938;2022-09-24T10:41:31;99030.00;;;26.78;100.00
17772;BME280;9010;32.624;-96.938;2022-09-24T10:44:04;99033.09;;;26.75;100.00
17772;BME280;9010;32.624;-96.938;2022-09-24T10:46:48;99030.75;;;26.72;100.00
17772;BME280;9010;32.624;-96.938;2022-09-24T10:49:30;99038.97;;;26.78;100.00
17772;BME280;9010;32.624;-96.938;2022-09-24T10:52:15;99038.41;;;26.83;100.00
17772;BME280;9010;32.624;-96.938;2022-09-24T10:54:52;99037.75;;;26.81;100.00
17772;BME280;9010;32.624;-96.938;2022-09-24T10:57:27;99038.59;;;26.81;100.00
17772;BME280;9010;32.624;-96.938;2022-09-24T11:00:07;99044.16;;;26.80;100.00
17772;BME280;9010;32.624;-96.938;2022-09-24T11:02:56;99037.47;;;26.76;100.00
17772;BME280;9010;32.624;-96.938;2022-09-24T11:05:36;99043.22;;;26.73;100.00
17772;BME280;9010;32.624;-96.938;2022-09-24T11:08:15;99041.53;;;26.72;100.00
17772;BME280;9010;32.624;-96.938;2022-09-24T11:11:03;99055.03;;;26.72;100.00
17772;BME280;9010;32.624;-96.938;2022-09-24T11:13:39;99052.44;;;26.64;100.00
17772;BME280;9010;32.624;-96.938;2022-09-24T11:16:40;99048.44;;;26.60;100.00
17772;BME280;9010;32.624;-96.938;2022-09-24T11:19:21;99055.13;;;26.64;100.00
17772;BME280;9010;32.624;-96.938;2022-09-24T11:22:02;99056.34;;;26.61;100.00
17772;BME280;9010;32.624;-96.938;2022-09-24T11:24:52;99052.91;;;26.53;100.00
17772;BME280;9010;32.624;-96.938;2022-09-24T11:27:42;99062.03;;;26.52;100.00
17772;BME280;9010;32.624;-96.938;2022-09-24T11:30:15;99069.56;;;26.42;100.00
17772;BME280;9010;32.624;-96.938;2022-09-24T11:32:58;99068.88;;;26.40;100.00
17772;BME280;9010;32.624;-96.938;2022-09-24T11:35:49;99069.72;;;26.40;100.00
17772;BME280;9010;32.624;-96.938;2022-09-24T11:38:32;99075.22;;;26.47;100.00
17772;BME280;9010;32.624;-96.938;2022-09-24T11:41:11;99073.75;;;26.44;100.00
17772;BME280;9010;32.624;-96.938;2022-09-24T11:44:08;99079.78;;;26.46;100.00
17772;BME280;9010;32.624;-96.938;2022-09-24T11:46:51;99081.09;;;26.36;100.00
17772;BME280;9010;32.624;-96.938;2022-09-24T11:49:47;99079.59;;;26.33;100.00
17772;BME280;9010;32.624;-96.938;2022-09-24T11:52:29;99086.94;;;26.39;100.00
17772;BME280;9010;32.624;-96.938;2022-09-24T11:55:04;99083.94;;;26.34;100.00
17772;BME280;9010;32.624;-96.938;2022-09-24T11:57:40;99094.28;;;26.31;100.00
17772;BME280;9010;32.624;-96.938;2022-09-24T12:00:13;99090.47;;;26.40;100.00
17772;BME280;9010;32.624;-96.938;2022-09-24T12:02:46;99099.00;;;26.28;100.00
17772;BME280;9010;32.624;-96.938;2022-09-24T12:05:24;99098.63;;;26.32;100.00
17772;BME280;9010;32.624;-96.938;2022-09-24T12:07:56;99106.91;;;26.30;100.00
17772;BME280;9010;32.624;-96.938;2022-09-24T12:10:31;99104.88;;;26.32;100.00
17772;BME280;9010;32.624;-96.938;2022-09-24T12:13:09;99100.31;;;26.33;100.00
17772;BME280;9010;32.624;-96.938;2022-09-24T12:15:45;99106.91;;;26.30;100.00
17772;BME280;9010;32.624;-96.938;2022-09-24T12:18:19;99095.84;;;26.25;100.00
17772;BME280;9010;32.624;-96.938;2022-09-24T12:20:52;99113.81;;;26.33;100.00
17772;BME280;9010;32.624;-96.938;2022-09-24T12:23:25;99114.53;;;26.26;100.00
17772;BME280;9010;32.624;-96.938;2022-09-24T12:25:56;99124.75;;;26.31;100.00
17772;BME280;9010;32.624;-96.938;2022-09-24T12:28:30;99115.38;;;26.27;100.00
17772;BME280;9010;32.624;-96.938;2022-09-24T12:31:24;99112.19;;;26.23;100.00
17772;BME280;9010;32.624;-96.938;2022-09-24T12:34:17;99131.06;;;26.23;100.00
17772;BME280;9010;32.624;-96.938;2022-09-24T12:36:56;99125.56;;;26.17;100.00
17772;BME280;9010;32.624;-96.938;2022-09-24T12:39:32;99133.00;;;26.15;100.00
17772;BME280;9010;32.624;-96.938;2022-09-24T12:42:06;99134.53;;;26.09;100.00
17772;BME280;9010;32.624;-96.938;2022-09-24T12:44:41;99141.31;;;26.05;100.00
17772;BME280;9010;32.624;-96.938;2022-09-24T12:47:17;99142.97;;;26.06;100.00
17772;BME280;9010;32.624;-96.938;2022-09-24T12:49:52;99146.22;;;26.02;100.00
17772;BME280;9010;32.624;-96.938;2022-09-24T12:52:31;99145.75;;;25.98;100.00
17772;BME280;9010;32.624;-96.938;2022-09-24T12:55:03;99149.94;;;26.01;100.00
17772;BME280;9010;32.624;-96.938;2022-09-24T12:57:34;99156.16;;;26.01;100.00
17772;BME280;9010;32.624;-96.938;2022-09-24T13:00:31;99164.25;;;26.01;100.00
17772;BME280;9010;32.624;-96.938;2022-09-24T13:02:54;99164.59;;;25.98;100.00
17772;BME280;9010;32.624;-96.938;2022-09-24T13:05:27;99167.28;;;25.98;100.00
17772;BME280;9010;32.624;-96.938;2022-09-24T13:08:01;99168.63;;;26.02;100.00
17772;BME280;9010;32.624;-96.938;2022-09-24T13:10:30;99166.22;;;26.07;100.00
17772;BME280;9010;32.624;-96.938;2022-09-24T13:13:00;99169.94;;;26.06;100.00
17772;BME280;9010;32.624;-96.938;2022-09-24T13:15:33;99172.91;;;26.11;100.00
17772;BME280;9010;32.624;-96.938;2022-09-24T13:18:13;99177.28;;;26.12;100.00